createdAt,value
2023-04-27T00:02:12.124Z,8.05
2023-04-27T00:04:40.724Z,8.06
2023-04-27T00:07:09.154Z,8.07
2023-04-27T00:09:37.165Z,8.07
2023-04-27T00:12:06.281Z,8.05
2023-04-27T00:14:34.401Z,8.04
2023-04-27T00:17:02.420Z,8.03
2023-04-27T00:19:32.135Z,8.04
2023-04-27T00:22:00.186Z,8.04
2023-04-27T00:24:28.386Z,8.05
2023-04-27T00:26:56.618Z,8.04
2023-04-27T00:29:24.794Z,8.07
2023-04-27T00:31:52.960Z,8.12
2023-04-27T00:34:23.687Z,8.13
2023-04-27T00:36:53.126Z,8.11
2023-04-27T00:39:21.709Z,8.08
2023-04-27T00:41:49.741Z,8.07
2023-04-27T00:44:24.463Z,8.05
2023-04-27T00:46:53.260Z,8.02
2023-04-27T00:49:22.214Z,8.00
2023-04-27T00:51:50.277Z,7.99
2023-04-27T00:54:21.771Z,7.98
2023-04-27T00:56:50.179Z,7.96
2023-04-27T00:59:18.804Z,7.94
2023-04-27T01:01:47.779Z,7.89
2023-04-27T01:04:16.980Z,7.81
2023-04-27T01:06:45.693Z,7.73
2023-04-27T01:09:14.169Z,7.60
2023-04-27T01:11:43.896Z,7.58
2023-04-27T01:14:12.271Z,7.56
2023-04-27T01:16:40.672Z,7.53
2023-04-27T01:19:10.769Z,7.45
2023-04-27T01:21:39.133Z,7.41
2023-04-27T01:24:09.818Z,7.37
2023-04-27T01:26:39.014Z,7.38
2023-04-27T01:29:07.121Z,7.39
2023-04-27T01:31:35.178Z,7.37
2023-04-27T01:34:03.626Z,7.31
2023-04-27T01:36:31.861Z,7.30
2023-04-27T01:38:59.856Z,7.29
2023-04-27T01:41:29.602Z,7.26
2023-04-27T01:43:57.674Z,7.30
2023-04-27T01:46:25.796Z,7.30
2023-04-27T01:48:54.138Z,7.32
2023-04-27T01:51:22.134Z,7.33
2023-04-27T01:53:50.325Z,7.36
2023-04-27T01:56:18.608Z,7.37
2023-04-27T01:58:47.963Z,7.36
2023-04-27T02:01:16.275Z,7.34
2023-04-27T02:03:44.678Z,7.36
2023-04-27T02:06:13.633Z,7.34
2023-04-27T02:08:41.693Z,7.34
2023-04-27T02:11:10.057Z,7.31
2023-04-27T02:13:38.772Z,7.27
2023-04-27T02:16:08.845Z,7.26
2023-04-27T02:18:38.523Z,7.18
2023-04-27T02:21:10.693Z,7.18
2023-04-27T02:23:39.179Z,7.13
2023-04-27T02:26:07.472Z,7.11
2023-04-27T02:28:38.694Z,7.08
2023-04-27T02:31:08.756Z,6.98
2023-04-27T02:33:36.787Z,6.87
2023-04-27T02:36:05.426Z,6.82
2023-04-27T02:38:33.663Z,6.84
2023-04-27T02:41:02.189Z,6.85
2023-04-27T02:43:30.338Z,6.88
2023-04-27T02:45:58.304Z,6.93
2023-04-27T02:48:31.600Z,6.97
2023-04-27T02:50:59.778Z,7.01
2023-04-27T02:53:28.267Z,7.01
2023-04-27T02:55:56.359Z,6.98
2023-04-27T02:58:24.533Z,6.97
2023-04-27T03:00:55.390Z,6.96
2023-04-27T03:03:23.972Z,6.96
2023-04-27T03:05:53.701Z,7.01
2023-04-27T03:08:21.701Z,7.05
2023-04-27T03:10:49.740Z,7.06
2023-04-27T03:13:18.045Z,7.10
2023-04-27T03:15:46.350Z,7.16
2023-04-27T03:18:14.285Z,7.21
2023-04-27T03:20:42.748Z,7.24
2023-04-27T03:23:12.433Z,7.27
2023-04-27T03:25:44.259Z,7.29
2023-04-27T03:28:13.248Z,7.31
2023-04-27T03:30:41.934Z,7.33
2023-04-27T03:33:10.033Z,7.34
2023-04-27T03:35:38.736Z,7.34
2023-04-27T03:38:07.275Z,7.35
2023-04-27T03:40:36.901Z,7.36
2023-04-27T03:43:05.214Z,7.35
2023-04-27T03:45:33.332Z,7.33
2023-04-27T03:48:01.970Z,7.35
2023-04-27T03:50:30.686Z,7.35
2023-04-27T03:52:58.792Z,7.34
2023-04-27T03:55:28.217Z,7.35
2023-04-27T03:58:03.182Z,7.40
2023-04-27T04:00:33.148Z,7.46
2023-04-27T04:03:01.820Z,7.54
2023-04-27T04:05:30.761Z,7.57
2023-04-27T04:07:59.134Z,7.62
2023-04-27T04:10:27.888Z,7.65
2023-04-27T04:12:56.008Z,7.68
2023-04-27T04:15:25.581Z,7.73
2023-04-27T04:17:54.217Z,7.78
2023-04-27T04:20:22.915Z,7.87
2023-04-27T04:22:51.385Z,7.93
2023-04-27T04:25:20.839Z,7.99
2023-04-27T04:27:49.172Z,8.04
2023-04-27T04:30:17.827Z,8.14
2023-04-27T04:32:47.580Z,8.19
2023-04-27T04:35:17.771Z,8.25
2023-04-27T04:37:46.826Z,8.31
2023-04-27T04:40:15.725Z,8.33
2023-04-27T04:42:43.932Z,8.34
2023-04-27T04:45:12.894Z,8.37
2023-04-27T04:47:41.529Z,8.40
2023-04-27T04:50:11.894Z,8.49
2023-04-27T04:52:41.309Z,8.58
2023-04-27T04:55:10.444Z,8.71
2023-04-27T04:57:38.550Z,8.76
2023-04-27T05:00:11.656Z,8.78
2023-04-27T05:02:40.200Z,8.74
2023-04-27T05:05:09.578Z,8.83
2023-04-27T05:07:39.057Z,8.89
2023-04-27T05:10:07.663Z,8.93
2023-04-27T05:12:35.932Z,8.98
2023-04-27T05:15:04.447Z,9.06
2023-04-27T05:17:32.728Z,9.14
2023-04-27T05:20:01.224Z,9.21
2023-04-27T05:22:29.302Z,9.28
2023-04-27T05:24:59.239Z,9.31
2023-04-27T05:27:27.604Z,9.43
2023-04-27T05:29:55.594Z,9.55
2023-04-27T05:32:23.733Z,9.68
2023-04-27T05:34:52.979Z,9.80
2023-04-27T05:37:20.999Z,9.91
2023-04-27T05:39:48.905Z,9.91
2023-04-27T05:42:18.547Z,10.00
2023-04-27T05:44:46.566Z,10.07
2023-04-27T05:47:14.616Z,10.20
2023-04-27T05:49:43.026Z,10.34
2023-04-27T05:52:11.265Z,10.50
2023-04-27T05:54:39.815Z,10.66
2023-04-27T05:57:08.427Z,10.84
2023-04-27T05:59:38.011Z,10.99
2023-04-27T06:02:06.215Z,11.13
2023-04-27T06:04:34.826Z,11.24
2023-04-27T06:07:04.082Z,11.33
2023-04-27T06:09:32.609Z,11.41
2023-04-27T06:12:02.831Z,11.47
2023-04-27T06:14:30.873Z,11.59
2023-04-27T06:17:00.467Z,11.73
2023-04-27T06:19:28.967Z,11.76
2023-04-27T06:21:57.240Z,11.78
2023-04-27T06:24:25.549Z,11.96
2023-04-27T06:26:54.555Z,12.16
2023-04-27T06:29:22.768Z,12.35
2023-04-27T06:31:51.051Z,12.55
2023-04-27T06:34:20.932Z,12.70
2023-04-27T06:36:49.087Z,12.90
2023-04-27T06:39:17.880Z,13.11
2023-04-27T06:41:46.244Z,13.34
2023-04-27T06:44:17.741Z,13.58
2023-04-27T06:46:46.354Z,13.63
2023-04-27T06:49:14.485Z,13.70
2023-04-27T06:51:44.163Z,13.90
2023-04-27T06:54:12.583Z,14.07
2023-04-27T06:56:40.619Z,14.12
2023-04-27T06:59:08.975Z,13.92
2023-04-27T07:01:37.765Z,14.05
2023-04-27T07:04:06.618Z,14.11
2023-04-27T07:06:34.831Z,14.39
2023-04-27T07:09:13.194Z,14.53
2023-04-27T07:11:45.919Z,14.42
2023-04-27T07:14:14.384Z,14.75
2023-04-27T07:16:44.152Z,14.72
2023-04-27T07:19:12.350Z,14.71
2023-04-27T07:21:41.196Z,14.77
2023-04-27T07:24:11.058Z,14.59
2023-04-27T07:26:39.582Z,14.87
2023-04-27T07:29:22.987Z,14.85
2023-04-27T07:31:55.644Z,14.83
2023-04-27T07:34:24.541Z,15.18
2023-04-27T07:36:54.322Z,15.43
2023-04-27T07:39:24.231Z,15.59
2023-04-27T07:41:52.727Z,15.51
2023-04-27T07:44:21.302Z,15.64
2023-04-27T07:46:50.145Z,15.66
2023-04-27T07:49:18.467Z,15.66
2023-04-27T07:51:46.536Z,16.00
2023-04-27T07:54:14.862Z,15.81
2023-04-27T07:56:44.658Z,16.01
2023-04-27T07:59:14.910Z,16.34
2023-04-27T08:01:43.578Z,16.57
2023-04-27T08:06:41.340Z,16.75
2023-04-27T08:09:10.706Z,16.60
2023-04-27T08:11:39.444Z,16.63
2023-04-27T08:14:13.602Z,16.91
2023-04-27T08:16:42.957Z,17.13
2023-04-27T08:19:12.165Z,17.34
2023-04-27T08:21:40.566Z,17.52
2023-04-27T08:24:09.049Z,17.46
2023-04-27T08:26:37.190Z,17.33
2023-04-27T08:29:15.361Z,17.35
2023-04-27T08:31:56.311Z,17.32
2023-04-27T08:34:25.921Z,17.68
2023-04-27T08:36:55.642Z,17.83
2023-04-27T08:39:24.624Z,17.73
2023-04-27T08:41:52.701Z,17.74
2023-04-27T08:44:21.185Z,17.67
2023-04-27T08:46:49.617Z,17.93
2023-04-27T08:49:19.382Z,18.21
2023-04-27T08:51:47.983Z,17.99
2023-04-27T08:54:16.290Z,17.88
2023-04-27T08:56:44.280Z,17.68
2023-04-27T08:59:16.538Z,17.57
2023-04-27T09:01:46.450Z,17.96
2023-04-27T09:04:16.031Z,18.38
2023-04-27T09:06:45.584Z,18.76
2023-04-27T09:09:24.362Z,18.81
2023-04-27T09:11:56.453Z,18.48
2023-04-27T09:14:25.402Z,18.31
2023-04-27T09:16:59.277Z,18.53
2023-04-27T09:19:27.804Z,18.89
2023-04-27T09:22:07.268Z,19.39
2023-04-27T09:24:35.789Z,19.42
2023-04-27T09:27:05.141Z,19.89
2023-04-27T09:29:34.598Z,19.51
2023-04-27T09:32:03.643Z,19.09
2023-04-27T09:34:41.971Z,18.93
2023-04-27T09:37:11.899Z,18.96
2023-04-27T09:39:40.368Z,18.65
2023-04-27T09:42:09.423Z,18.72
2023-04-27T09:44:37.419Z,18.88
2023-04-27T09:47:06.854Z,18.98
2023-04-27T09:49:35.726Z,18.85
2023-04-27T09:52:04.168Z,19.06
2023-04-27T09:54:36.102Z,19.43
2023-04-27T09:57:13.895Z,19.75
2023-04-27T09:59:59.502Z,20.08
2023-04-27T10:02:29.755Z,20.35
2023-04-27T10:05:22.566Z,20.12
2023-04-27T10:07:53.031Z,19.92
2023-04-27T10:10:22.805Z,19.87
2023-04-27T10:12:58.694Z,19.71
2023-04-27T10:15:29.008Z,19.66
2023-04-27T10:17:59.213Z,20.09
2023-04-27T10:20:31.569Z,20.02
2023-04-27T10:23:00.533Z,20.00
2023-04-27T10:25:38.082Z,20.04
2023-04-27T10:28:08.033Z,20.13
2023-04-27T10:30:37.748Z,20.41
2023-04-27T10:33:08.542Z,20.69
2023-04-27T10:35:38.867Z,20.97
2023-04-27T10:38:08.928Z,21.53
2023-04-27T10:40:39.673Z,21.96
2023-04-27T10:43:12.657Z,21.65
2023-04-27T10:45:41.473Z,20.83
2023-04-27T10:48:11.041Z,20.34
2023-04-27T10:50:39.097Z,20.15
2023-04-27T10:53:08.781Z,20.03
2023-04-27T10:55:38.340Z,19.93
2023-04-27T10:58:06.554Z,19.83
2023-04-27T11:00:37.730Z,19.74
2023-04-27T11:03:14.874Z,19.71
2023-04-27T11:05:44.566Z,19.66
2023-04-27T11:08:14.409Z,19.54
2023-04-27T11:10:49.171Z,19.47
2023-04-27T11:13:19.461Z,19.88
2023-04-27T11:15:49.227Z,20.61
2023-04-27T11:18:18.868Z,20.93
2023-04-27T11:20:49.332Z,20.59
2023-04-27T11:23:26.001Z,20.14
2023-04-27T11:25:56.400Z,19.83
2023-04-27T11:28:26.148Z,19.41
2023-04-27T11:30:57.810Z,19.36
2023-04-27T11:33:26.498Z,19.49
2023-04-27T11:35:55.139Z,19.86
2023-04-27T11:38:23.591Z,19.98
2023-04-27T11:41:02.979Z,20.03
2023-04-27T11:43:31.008Z,20.43
2023-04-27T11:45:59.983Z,20.47
2023-04-27T11:48:29.259Z,20.31
2023-04-27T11:51:01.255Z,20.01
2023-04-27T11:53:34.835Z,19.76
2023-04-27T11:56:06.214Z,19.87
2023-04-27T11:58:36.194Z,19.93
2023-04-27T12:01:04.907Z,20.16
2023-04-27T12:03:33.534Z,20.64
2023-04-27T12:06:21.632Z,20.77
2023-04-27T12:08:49.917Z,20.69
2023-04-27T12:11:19.318Z,20.63
2023-04-27T12:13:48.280Z,20.85
2023-04-27T12:16:16.564Z,21.09
2023-04-27T12:18:44.735Z,21.15
2023-04-27T12:21:13.043Z,20.97
2023-04-27T12:23:41.506Z,20.76
2023-04-27T12:26:09.930Z,20.30
2023-04-27T12:28:39.726Z,20.34
2023-04-27T12:31:08.438Z,20.25
2023-04-27T12:33:36.931Z,20.19
2023-04-27T12:36:05.098Z,19.88
2023-04-27T12:38:33.368Z,20.02
2023-04-27T12:41:03.323Z,19.89
2023-04-27T12:43:31.472Z,19.62
2023-04-27T12:46:01.515Z,19.74
2023-04-27T12:48:29.870Z,19.78
2023-04-27T12:50:58.082Z,19.66
2023-04-27T12:53:26.281Z,19.69
2023-04-27T12:55:54.322Z,19.62
2023-04-27T12:58:22.398Z,19.96
2023-04-27T13:00:50.758Z,20.24
2023-04-27T13:03:20.370Z,20.87
2023-04-27T13:05:48.974Z,21.32
2023-04-27T13:08:17.447Z,21.32
2023-04-27T13:10:45.736Z,21.27
2023-04-27T13:13:13.740Z,21.49
2023-04-27T13:15:41.999Z,21.47
2023-04-27T13:18:10.416Z,21.46
2023-04-27T13:20:39.916Z,21.24
2023-04-27T13:23:08.265Z,21.52
2023-04-27T13:25:36.388Z,21.36
2023-04-27T13:28:04.585Z,21.34
2023-04-27T13:30:33.165Z,21.26
2023-04-27T13:33:14.150Z,21.26
2023-04-27T13:35:48.686Z,21.63
2023-04-27T13:38:16.985Z,22.25
2023-04-27T13:40:45.255Z,22.47
2023-04-27T13:43:13.771Z,22.96
2023-04-27T13:45:42.657Z,23.11
2023-04-27T13:48:10.847Z,23.00
2023-04-27T13:50:39.406Z,23.31
2023-04-27T13:53:08.752Z,23.18
2023-04-27T13:55:37.446Z,23.41
2023-04-27T13:58:06.061Z,23.40
2023-04-27T14:00:34.833Z,23.34
2023-04-27T14:03:04.918Z,23.08
2023-04-27T14:05:33.606Z,22.92
2023-04-27T14:08:01.867Z,23.15
2023-04-27T14:10:31.505Z,23.59
2023-04-27T14:12:59.690Z,23.43
2023-04-27T14:15:28.975Z,23.04
2023-04-27T14:17:57.527Z,22.88
2023-04-27T14:20:27.331Z,23.16
2023-04-27T14:22:57.195Z,22.97
2023-04-27T14:25:27.348Z,22.56
2023-04-27T14:27:56.668Z,22.33
2023-04-27T14:30:24.815Z,21.66
2023-04-27T14:32:53.492Z,21.68
2023-04-27T14:35:23.688Z,21.69
2023-04-27T14:37:52.335Z,22.17
2023-04-27T14:40:21.126Z,22.47
2023-04-27T14:42:49.174Z,22.74
2023-04-27T14:45:19.001Z,22.99
2023-04-27T14:47:47.429Z,23.12
2023-04-27T14:50:15.874Z,23.22
2023-04-27T14:52:44.084Z,23.28
2023-04-27T14:55:13.648Z,23.29
2023-04-27T14:57:41.661Z,23.48
2023-04-27T15:00:11.194Z,22.98
2023-04-27T15:02:41.126Z,23.09
2023-04-27T15:05:09.968Z,23.40
2023-04-27T15:07:37.982Z,23.30
2023-04-27T15:10:07.354Z,23.00
2023-04-27T15:12:35.433Z,23.42
2023-04-27T15:15:03.729Z,24.12
2023-04-27T15:17:32.435Z,24.62
2023-04-27T15:20:01.802Z,24.44
2023-04-27T15:22:29.793Z,24.67
2023-04-27T15:24:58.375Z,25.08
2023-04-27T15:27:26.884Z,25.10
2023-04-27T15:29:55.300Z,25.18
2023-04-27T15:32:29.753Z,25.04
2023-04-27T15:34:58.566Z,25.00
2023-04-27T15:37:29.459Z,25.43
2023-04-27T15:39:57.873Z,25.54
2023-04-27T15:42:25.916Z,25.56
2023-04-27T15:44:55.216Z,25.61
2023-04-27T15:47:23.392Z,26.15
2023-04-27T15:49:57.440Z,26.70
2023-04-27T15:52:27.946Z,27.05
2023-04-27T15:54:56.135Z,27.45
2023-04-27T15:57:24.134Z,27.41
2023-04-27T15:59:52.576Z,26.98
2023-04-27T16:02:20.724Z,26.85
2023-04-27T16:04:49.237Z,27.02
2023-04-27T16:07:17.199Z,27.29
2023-04-27T16:09:46.618Z,27.17
2023-04-27T16:12:15.295Z,27.06
2023-04-27T16:14:43.301Z,27.17
2023-04-27T16:17:11.424Z,27.38
2023-04-27T16:19:39.685Z,27.55
2023-04-27T16:22:07.758Z,26.70
2023-04-27T16:24:35.840Z,26.67
2023-04-27T16:27:05.409Z,26.08
2023-04-27T16:29:33.431Z,25.59
2023-04-27T16:32:02.028Z,25.64
2023-04-27T16:34:30.294Z,25.58
2023-04-27T16:36:58.299Z,25.53
2023-04-27T16:39:26.453Z,25.17
2023-04-27T16:41:54.742Z,24.76
2023-04-27T16:44:24.378Z,24.40
2023-04-27T16:46:52.460Z,24.34
2023-04-27T16:49:20.829Z,24.48
2023-04-27T16:51:48.776Z,24.33
2023-04-27T16:54:16.907Z,24.01
2023-04-27T16:56:45.883Z,23.48
2023-04-27T16:59:14.135Z,23.29
2023-04-27T17:01:43.599Z,23.07
2023-04-27T17:04:12.148Z,22.73
2023-04-27T17:06:40.713Z,22.51
2023-04-27T17:09:10.229Z,22.26
2023-04-27T17:11:38.594Z,22.07
2023-04-27T17:14:06.718Z,21.55
2023-04-27T17:16:34.691Z,21.37
2023-04-27T17:19:04.281Z,21.17
2023-04-27T17:21:32.425Z,21.08
2023-04-27T17:24:00.599Z,20.81
2023-04-27T17:26:28.823Z,20.62
2023-04-27T17:28:59.974Z,20.38
2023-04-27T17:31:28.660Z,20.00
2023-04-27T17:33:56.737Z,19.79
2023-04-27T17:36:26.467Z,19.56
2023-04-27T17:38:54.803Z,19.23
2023-04-27T17:41:22.903Z,18.97
2023-04-27T17:43:50.990Z,18.60
2023-04-27T17:46:21.533Z,18.38
2023-04-27T17:48:49.593Z,18.16
2023-04-27T17:51:17.983Z,17.90
2023-04-27T17:53:47.936Z,17.80
2023-04-27T17:56:16.203Z,17.71
2023-04-27T17:58:44.294Z,17.64
2023-04-27T18:01:13.472Z,17.53
2023-04-27T18:03:42.851Z,17.43
2023-04-27T18:06:11.098Z,17.35
2023-04-27T18:08:39.033Z,17.22
2023-04-27T18:11:08.653Z,17.12
2023-04-27T18:13:36.672Z,17.03
2023-04-27T18:16:05.202Z,16.94
2023-04-27T18:18:33.580Z,16.83
2023-04-27T18:21:01.556Z,16.65
2023-04-27T18:23:29.650Z,16.50
2023-04-27T18:25:59.755Z,16.32
2023-04-27T18:28:29.102Z,16.20
2023-04-27T18:30:57.654Z,16.12
2023-04-27T18:33:25.937Z,16.01
2023-04-27T18:35:53.964Z,15.93
2023-04-27T18:38:22.386Z,15.86
2023-04-27T18:40:50.376Z,15.79
2023-04-27T18:43:18.401Z,15.72
2023-04-27T18:45:47.984Z,15.56
2023-04-27T18:48:16.045Z,15.43
2023-04-27T18:50:44.154Z,15.27
2023-04-27T18:53:12.482Z,15.10
2023-04-27T18:55:40.562Z,14.92
2023-04-27T18:58:08.759Z,14.74
2023-04-27T19:00:38.459Z,14.60
2023-04-27T19:03:08.099Z,14.42
2023-04-27T19:05:36.850Z,14.36
2023-04-27T19:08:04.973Z,14.30
2023-04-27T19:10:32.956Z,14.28
2023-04-27T19:13:01.427Z,14.23
2023-04-27T19:15:29.607Z,14.16
2023-04-27T19:18:03.009Z,14.06
2023-04-27T19:20:40.633Z,13.96
2023-04-27T19:23:09.581Z,13.87
2023-04-27T19:25:37.948Z,13.81
2023-04-27T19:28:06.976Z,13.73
2023-04-27T19:30:35.139Z,13.63
2023-04-27T19:33:04.273Z,13.58
2023-04-27T19:35:32.411Z,13.54
2023-04-27T19:38:01.896Z,13.53
2023-04-27T19:40:30.352Z,13.50
2023-04-27T19:42:58.488Z,13.49
2023-04-27T19:45:26.586Z,13.49
2023-04-27T19:47:55.316Z,13.50
2023-04-27T19:50:23.772Z,13.46
2023-04-27T19:52:51.838Z,13.39
2023-04-27T19:55:21.533Z,13.33
2023-04-27T19:57:49.601Z,13.28
2023-04-27T20:00:18.111Z,13.26
2023-04-27T20:02:46.572Z,13.22
2023-04-27T20:05:15.186Z,13.14
2023-04-27T20:07:43.629Z,13.05
2023-04-27T20:10:12.190Z,12.97
2023-04-27T20:12:55.186Z,12.92
2023-04-27T20:15:24.393Z,12.91
2023-04-27T20:17:52.739Z,12.89
2023-04-27T20:20:21.391Z,12.85
2023-04-27T20:22:49.841Z,12.82
2023-04-27T20:25:19.594Z,12.79
2023-04-27T20:27:48.968Z,12.75
2023-04-27T20:30:17.248Z,12.73
2023-04-27T20:32:46.731Z,12.73
2023-04-27T20:35:15.491Z,12.73
2023-04-27T20:37:44.446Z,12.74
2023-04-27T20:40:17.407Z,12.72
2023-04-27T20:42:46.293Z,12.55
2023-04-27T20:45:16.015Z,12.47
2023-04-27T20:47:44.289Z,12.38
2023-04-27T20:50:12.802Z,12.29
2023-04-27T20:52:41.268Z,12.23
2023-04-27T20:55:10.280Z,12.18
2023-04-27T20:57:38.725Z,12.14
2023-04-27T21:00:09.712Z,12.11
2023-04-27T21:02:39.296Z,12.08
2023-04-27T21:05:08.090Z,12.05
2023-04-27T21:07:36.307Z,11.99
2023-04-27T21:10:06.875Z,11.98
2023-04-27T21:12:35.600Z,11.93
2023-04-27T21:15:04.833Z,11.90
2023-04-27T21:17:34.263Z,11.85
2023-04-27T21:20:04.036Z,11.89
2023-04-27T21:22:33.072Z,11.87
2023-04-27T21:25:01.834Z,11.80
2023-04-27T21:27:30.981Z,11.72
2023-04-27T21:29:59.553Z,11.65
2023-04-27T21:32:28.249Z,11.62
2023-04-27T21:34:56.655Z,11.55
2023-04-27T21:37:26.025Z,11.49
2023-04-27T21:39:54.334Z,11.52
2023-04-27T21:42:22.577Z,11.62
2023-04-27T21:44:50.689Z,11.63
2023-04-27T21:47:18.803Z,11.56
2023-04-27T21:49:47.221Z,11.44
2023-04-27T21:52:15.296Z,11.35
2023-04-27T21:54:44.593Z,11.41
2023-04-27T21:57:12.982Z,11.45
2023-04-27T21:59:41.371Z,11.51
2023-04-27T22:02:09.914Z,11.42
2023-04-27T22:04:39.063Z,11.30
2023-04-27T22:07:09.005Z,11.25
2023-04-27T22:09:37.156Z,11.22
2023-04-27T22:12:07.194Z,11.22
2023-04-27T22:14:35.848Z,11.24
2023-04-27T22:17:04.682Z,11.22
2023-04-27T22:19:33.084Z,11.19
2023-04-27T22:22:01.306Z,11.21
2023-04-27T22:24:29.348Z,11.17
2023-04-27T22:26:57.663Z,11.19
2023-04-27T22:29:27.076Z,11.18
2023-04-27T22:31:55.429Z,11.19
2023-04-27T22:34:24.199Z,11.21
2023-04-27T22:36:52.269Z,11.23
2023-04-27T22:39:20.442Z,11.26
2023-04-27T22:41:49.036Z,11.28
2023-04-27T22:44:17.616Z,11.24
2023-04-27T22:46:47.158Z,11.17
2023-04-27T22:49:17.309Z,11.15
2023-04-27T22:51:47.121Z,11.09
2023-04-27T22:54:15.676Z,11.04
2023-04-27T22:56:44.008Z,11.00
2023-04-27T22:59:12.405Z,10.91
2023-04-27T23:01:40.845Z,10.84
2023-04-27T23:04:10.426Z,10.80
2023-04-27T23:06:38.769Z,10.79
2023-04-27T23:09:07.682Z,10.83
2023-04-27T23:11:35.866Z,10.82
2023-04-27T23:14:04.170Z,10.83
2023-04-27T23:16:32.655Z,10.85
2023-04-27T23:19:00.835Z,10.89
2023-04-27T23:21:30.423Z,10.97
2023-04-27T23:23:58.800Z,10.99
2023-04-27T23:26:26.912Z,11.04
2023-04-27T23:28:54.937Z,11.00
2023-04-27T23:31:24.065Z,11.06
2023-04-27T23:33:52.219Z,11.11
2023-04-27T23:36:23.442Z,11.17
2023-04-27T23:38:53.184Z,11.19
2023-04-27T23:41:21.867Z,11.12
2023-04-27T23:43:49.957Z,11.04
2023-04-27T23:46:18.466Z,11.06
2023-04-27T23:48:46.549Z,11.00
2023-04-27T23:51:14.707Z,10.96
2023-04-27T23:53:43.128Z,10.95
2023-04-27T23:56:18.438Z,10.97
2023-04-27T23:58:47.006Z,10.96
